Terminal Aerodrome Forecast
Issued by NWS

Home | Current Version | Previous Version | Text Only | Print | Product List | Glossary On
Versions: 1 2 3 4 5 6 7 8 9 10 11 12 13 14
000
FTUS44 KTSA 100500
TAFFYV
TAF
KFYV 100520Z 1006/1106 00000KT P6SM FEW060 SCT250
     FM101000 00000KT P6SM BKN250 PROB30 1015/1021 5SM -TSRA
      BKN050CB
     FM102100 17006KT P6SM SCT050 BKN250=

USA.gov is the U.S. government's official web portal to all federal, state and local government web resources and services.